createdAt,value
2018-09-18T00:00:50.404Z,55.85
2018-09-18T00:01:50.442Z,55.46
2018-09-18T00:02:50.417Z,55.94
2018-09-18T00:03:50.447Z,55.08
2018-09-18T00:04:50.495Z,55.56
2018-09-18T00:05:50.455Z,55.08
2018-09-18T00:06:50.460Z,55.27
2018-09-18T00:07:50.582Z,55.46
2018-09-18T00:08:50.504Z,55.66
2018-09-18T00:09:50.545Z,55.46
2018-09-18T00:10:50.509Z,55.76
2018-09-18T00:11:50.496Z,55.37
2018-09-18T00:12:50.632Z,55.66
2018-09-18T00:13:50.546Z,55.18
2018-09-18T00:14:50.568Z,54.99
2018-09-18T00:15:50.589Z,55.18
2018-09-18T00:16:50.583Z,55.18
2018-09-18T00:17:50.590Z,55.18
2018-09-18T00:18:50.594Z,55.94
2018-09-18T00:19:50.632Z,55.76
2018-09-18T00:20:50.633Z,55.76
2018-09-18T00:21:50.644Z,55.85
2018-09-18T00:22:50.623Z,56.04
2018-09-18T00:23:50.691Z,55.56
2018-09-18T00:24:50.665Z,55.66
2018-09-18T00:25:50.676Z,55.56
2018-09-18T00:26:50.756Z,55.85
2018-09-18T00:27:50.675Z,55.08
2018-09-18T00:28:50.692Z,55.85
2018-09-18T00:29:50.700Z,55.37
2018-09-18T00:30:50.751Z,55.18
2018-09-18T00:31:50.751Z,55.46
2018-09-18T00:32:50.753Z,55.85
2018-09-18T00:33:50.744Z,56.04
2018-09-18T00:34:50.764Z,55.76
2018-09-18T00:35:50.769Z,56.14
2018-09-18T00:36:50.789Z,55.66
2018-09-18T00:37:50.818Z,56.04
2018-09-18T00:38:50.775Z,56.14
2018-09-18T00:39:50.815Z,56.14
2018-09-18T00:40:50.832Z,55.76
2018-09-18T00:41:50.885Z,55.66
2018-09-18T00:42:50.819Z,55.37
2018-09-18T00:43:50.862Z,55.94
2018-09-18T00:44:50.869Z,56.21
2018-09-18T00:45:50.908Z,55.27
2018-09-18T00:46:50.904Z,55.66
2018-09-18T00:47:50.898Z,55.05
2018-09-18T00:48:50.980Z,54.67
2018-09-18T00:49:51.096Z,54.77
2018-09-18T00:50:50.899Z,55.05
2018-09-18T00:51:50.928Z,54.67
2018-09-18T00:52:50.938Z,54.86
2018-09-18T00:53:51.028Z,54.77
2018-09-18T00:54:50.991Z,55.05
2018-09-18T00:55:50.956Z,54.86
2018-09-18T00:56:51.044Z,54.67
2018-09-18T00:57:50.963Z,55.15
2018-09-18T00:58:51.019Z,55.15
2018-09-18T00:59:51.070Z,55.05
2018-09-18T01:00:51.034Z,56.01
2018-09-18T01:01:51.088Z,55.24
2018-09-18T01:02:51.043Z,55.73
2018-09-18T01:03:51.066Z,55.82
2018-09-18T01:04:51.073Z,55.34
2018-09-18T01:05:51.068Z,55.53
2018-09-18T01:06:51.076Z,55.82
2018-09-18T01:07:51.084Z,55.34
2018-09-18T01:08:51.103Z,55.73
2018-09-18T01:09:51.097Z,55.53
2018-09-18T01:10:51.218Z,56.11
2018-09-18T01:11:51.144Z,55.73
2018-09-18T01:12:51.130Z,55.63
2018-09-18T01:13:51.178Z,55.73
2018-09-18T01:14:51.190Z,55.53
2018-09-18T01:15:51.188Z,55.82
2018-09-18T01:16:51.224Z,55.91
2018-09-18T01:17:51.200Z,55.91
2018-09-18T01:18:51.173Z,56.11
2018-09-18T01:19:51.225Z,56.30
2018-09-18T01:20:51.244Z,56.01
2018-09-18T01:21:51.280Z,55.53
2018-09-18T01:22:51.290Z,55.91
2018-09-18T01:23:51.259Z,56.30
2018-09-18T01:24:51.265Z,55.53
2018-09-18T01:25:51.253Z,55.73
2018-09-18T01:26:51.259Z,55.91
2018-09-18T01:27:51.318Z,56.30
2018-09-18T01:28:51.315Z,56.68
2018-09-18T01:29:51.307Z,56.21
2018-09-18T01:30:51.329Z,56.40
2018-09-18T01:31:51.322Z,56.40
2018-09-18T01:32:51.493Z,56.49
2018-09-18T01:33:51.359Z,56.30
2018-09-18T01:34:51.367Z,56.30
2018-09-18T01:35:51.368Z,56.40
2018-09-18T01:36:52.360Z,56.59
2018-09-18T01:37:51.434Z,55.82
2018-09-18T01:38:51.403Z,56.40
2018-09-18T01:39:51.418Z,56.46
2018-09-18T01:40:51.423Z,56.46
2018-09-18T01:41:51.410Z,56.46
2018-09-18T01:42:51.479Z,56.37
2018-09-18T01:43:51.544Z,56.85
2018-09-18T01:44:51.453Z,56.95
2018-09-18T01:45:51.508Z,56.88
2018-09-18T01:46:51.526Z,56.95
2018-09-18T01:47:51.484Z,56.85
2018-09-18T01:48:51.526Z,56.56
2018-09-18T01:49:51.547Z,56.66
2018-09-18T01:50:51.505Z,56.95
2018-09-18T01:51:51.510Z,56.85
2018-09-18T01:52:51.615Z,57.43
2018-09-18T01:53:51.551Z,56.95
2018-09-18T01:54:51.574Z,56.85
2018-09-18T01:55:51.559Z,57.04
2018-09-18T01:56:51.574Z,57.33
2018-09-18T01:57:51.626Z,56.95
2018-09-18T01:58:51.594Z,57.04
2018-09-18T01:59:51.596Z,56.95
2018-09-18T02:00:51.627Z,57.04
2018-09-18T02:01:51.649Z,56.85
2018-09-18T02:02:51.657Z,57.04
2018-09-18T02:03:51.639Z,56.85
2018-09-18T02:04:51.666Z,57.14
2018-09-18T02:05:51.686Z,57.52
2018-09-18T02:06:51.712Z,56.95
2018-09-18T02:07:51.701Z,57.23
2018-09-18T02:08:51.712Z,57.62
2018-09-18T02:09:51.727Z,57.71
2018-09-18T02:10:51.744Z,57.90
2018-09-18T02:11:51.725Z,58.00
2018-09-18T02:12:51.796Z,57.14
2018-09-18T02:13:51.759Z,57.33
2018-09-18T02:14:51.764Z,57.43
2018-09-18T02:15:51.768Z,57.81
2018-09-18T02:16:51.787Z,57.23
2018-09-18T02:17:51.797Z,57.62
2018-09-18T02:18:51.813Z,58.10
2018-09-18T02:19:51.815Z,57.90
2018-09-18T02:20:51.808Z,57.62
2018-09-18T02:21:51.824Z,57.43
2018-09-18T02:22:51.833Z,57.90
2018-09-18T02:23:51.887Z,57.90
2018-09-18T02:24:51.833Z,58.10
2018-09-18T02:25:51.908Z,57.43
2018-09-18T02:26:51.905Z,57.71
2018-09-18T02:27:51.896Z,57.81
2018-09-18T02:28:51.898Z,58.29
2018-09-18T02:29:51.900Z,58.48
2018-09-18T02:30:51.954Z,58.29
2018-09-18T02:31:51.979Z,58.29
2018-09-18T02:32:51.946Z,58.20
2018-09-18T02:33:51.976Z,58.58
2018-09-18T02:34:52.059Z,58.67
2018-09-18T02:35:51.970Z,58.58
2018-09-18T02:36:51.958Z,58.39
2018-09-18T02:37:52.016Z,58.58
2018-09-18T02:38:51.998Z,58.39
2018-09-18T02:39:52.022Z,58.29
2018-09-18T02:40:52.023Z,58.39
2018-09-18T02:41:52.006Z,58.48
2018-09-18T02:42:52.079Z,58.87
2018-09-18T02:43:52.038Z,58.29
2018-09-18T02:44:52.061Z,58.29
2018-09-18T02:45:52.089Z,58.39
2018-09-18T02:46:52.077Z,58.39
2018-09-18T02:47:52.090Z,58.48
2018-09-18T02:48:52.088Z,58.48
2018-09-18T02:49:52.120Z,58.67
2018-09-18T02:50:52.125Z,58.45
2018-09-18T02:51:52.125Z,58.39
2018-09-18T02:52:52.123Z,58.48
2018-09-18T02:53:52.147Z,58.87
2018-09-18T02:54:52.188Z,58.48
2018-09-18T02:55:52.195Z,58.45
2018-09-18T02:56:52.167Z,58.84
2018-09-18T02:57:52.186Z,58.64
2018-09-18T02:58:52.163Z,58.84
2018-09-18T02:59:52.180Z,58.84
2018-09-18T03:00:52.252Z,58.64
2018-09-18T03:01:52.208Z,58.74
2018-09-18T03:02:52.249Z,58.84
2018-09-18T03:03:52.310Z,59.41
2018-09-18T03:04:52.243Z,59.61
2018-09-18T03:05:52.269Z,59.41
2018-09-18T03:06:52.297Z,59.41
2018-09-18T03:07:52.287Z,59.70
2018-09-18T03:08:52.274Z,59.03
2018-09-18T03:09:52.295Z,59.51
2018-09-18T03:10:52.353Z,59.22
2018-09-18T03:11:52.303Z,59.32
2018-09-18T03:12:52.331Z,59.22
2018-09-18T03:13:52.367Z,59.32
2018-09-18T03:14:52.381Z,59.70
2018-09-18T03:15:52.380Z,59.41
2018-09-18T03:16:52.358Z,59.32
2018-09-18T03:17:52.408Z,59.22
2018-09-18T03:18:52.399Z,59.32
2018-09-18T03:19:52.389Z,59.99
2018-09-18T03:20:52.445Z,59.70
2018-09-18T03:21:52.398Z,59.89
2018-09-18T03:22:52.432Z,59.61
2018-09-18T03:23:52.426Z,60.18
2018-09-18T03:24:52.448Z,59.61
2018-09-18T03:25:52.513Z,59.70
2018-09-18T03:26:52.512Z,60.08
2018-09-18T03:27:52.471Z,60.08
2018-09-18T03:28:52.505Z,60.18
2018-09-18T03:29:52.485Z,60.38
2018-09-18T03:30:52.531Z,59.89
2018-09-18T03:31:52.560Z,59.99
2018-09-18T03:32:52.537Z,60.28
2018-09-18T03:33:52.512Z,60.08
2018-09-18T03:34:52.550Z,60.75
2018-09-18T03:35:52.583Z,60.57
2018-09-18T03:36:52.567Z,60.75
2018-09-18T03:37:52.589Z,60.47
2018-09-18T03:38:52.641Z,60.75
2018-09-18T03:39:52.611Z,60.63
2018-09-18T03:40:52.594Z,60.47
2018-09-18T03:41:52.607Z,60.47
2018-09-18T03:42:52.623Z,60.57
2018-09-18T03:43:52.624Z,60.47
2018-09-18T03:44:52.676Z,60.28
2018-09-18T03:45:52.649Z,61.05
2018-09-18T03:46:52.661Z,60.28
2018-09-18T03:47:52.694Z,60.38
2018-09-18T03:48:52.717Z,60.66
2018-09-18T03:49:52.690Z,60.25
2018-09-18T03:50:52.667Z,60.92
2018-09-18T03:51:52.749Z,61.02
2018-09-18T03:52:52.750Z,60.92
2018-09-18T03:53:52.755Z,60.72
2018-09-18T03:54:52.748Z,61.11
2018-09-18T03:55:52.768Z,60.72
2018-09-18T03:56:52.754Z,60.72
2018-09-18T03:57:53.015Z,61.02
2018-09-18T03:58:52.786Z,60.92
2018-09-18T03:59:52.766Z,61.21
2018-09-18T04:00:52.801Z,61.11
2018-09-18T04:01:52.804Z,61.49
2018-09-18T04:02:52.934Z,61.21
2018-09-18T04:03:52.848Z,61.78
2018-09-18T04:04:52.857Z,61.59
2018-09-18T04:05:52.836Z,61.59
2018-09-18T04:06:52.886Z,61.69
2018-09-18T04:07:52.858Z,61.69
2018-09-18T04:08:52.881Z,61.69
2018-09-18T04:09:52.858Z,61.88
2018-09-18T04:10:52.904Z,61.59
2018-09-18T04:11:52.930Z,61.59
2018-09-18T04:12:52.888Z,61.49
2018-09-18T04:13:52.946Z,61.59
2018-09-18T04:14:52.931Z,61.40
2018-09-18T04:15:52.942Z,61.59
2018-09-18T04:16:52.939Z,61.78
2018-09-18T04:17:52.952Z,61.49
2018-09-18T04:18:52.966Z,61.40
2018-09-18T04:19:52.960Z,61.69
2018-09-18T04:20:52.980Z,61.49
2018-09-18T04:21:53.043Z,61.49
2018-09-18T04:22:53.000Z,61.78
2018-09-18T04:23:53.011Z,61.88
2018-09-18T04:24:52.994Z,61.59
2018-09-18T04:25:53.012Z,61.49
2018-09-18T04:26:53.063Z,61.59
2018-09-18T04:27:53.082Z,61.49
2018-09-18T04:28:53.045Z,61.49
2018-09-18T04:29:53.089Z,61.59
2018-09-18T04:30:53.101Z,61.59
2018-09-18T04:31:53.116Z,61.88
2018-09-18T04:32:53.118Z,61.49
2018-09-18T04:33:53.124Z,61.88
2018-09-18T04:34:53.126Z,61.78
2018-09-18T04:35:53.113Z,61.40
2018-09-18T04:36:53.228Z,61.49
2018-09-18T04:37:53.175Z,62.07
2018-09-18T04:38:53.154Z,61.88
2018-09-18T04:39:53.161Z,61.49
2018-09-18T04:40:53.157Z,61.40
2018-09-18T04:41:53.205Z,61.40
2018-09-18T04:42:53.182Z,61.40
2018-09-18T04:43:53.185Z,61.49
2018-09-18T04:44:53.203Z,61.30
2018-09-18T04:45:53.292Z,61.30
2018-09-18T04:46:53.245Z,62.16
2018-09-18T04:47:53.239Z,61.88
2018-09-18T04:48:53.341Z,61.98
2018-09-18T04:49:53.260Z,62.16
2018-09-18T04:50:53.278Z,62.16
2018-09-18T04:51:53.272Z,61.88
2018-09-18T04:52:53.276Z,62.26
2018-09-18T04:53:53.290Z,61.98
2018-09-18T04:54:53.365Z,62.36
2018-09-18T04:55:53.336Z,62.16
2018-09-18T04:56:53.339Z,61.88
2018-09-18T04:57:53.330Z,62.26
2018-09-18T04:58:53.331Z,61.78
2018-09-18T04:59:53.415Z,62.26
2018-09-18T05:00:53.394Z,61.98
2018-09-18T05:01:53.393Z,62.16
2018-09-18T05:02:53.371Z,62.16
2018-09-18T05:03:53.421Z,62.16
2018-09-18T05:04:53.404Z,61.88
2018-09-18T05:05:53.423Z,62.07
2018-09-18T05:06:53.443Z,62.16
2018-09-18T05:07:53.404Z,62.26
2018-09-18T05:08:53.446Z,62.65
2018-09-18T05:09:53.460Z,62.45
2018-09-18T05:10:53.483Z,62.36
2018-09-18T05:11:53.466Z,62.26
2018-09-18T05:12:53.477Z,62.26
2018-09-18T05:13:53.495Z,61.98
2018-09-18T05:14:53.493Z,62.45
2018-09-18T05:15:53.493Z,62.36
2018-09-18T05:16:53.525Z,62.16
2018-09-18T05:17:53.523Z,62.16
2018-09-18T05:18:53.518Z,62.16
2018-09-18T05:19:53.535Z,62.26
2018-09-18T05:20:53.565Z,62.26
2018-09-18T05:21:53.584Z,62.36
2018-09-18T05:22:53.575Z,62.16
2018-09-18T05:23:53.583Z,61.98
2018-09-18T05:24:53.608Z,61.98
2018-09-18T05:25:53.609Z,62.16
2018-09-18T05:26:53.599Z,62.65
2018-09-18T05:27:53.611Z,63.22
2018-09-18T05:28:53.632Z,62.65
2018-09-18T05:29:53.645Z,62.55
2018-09-18T05:30:53.734Z,62.36
2018-09-18T05:31:53.650Z,62.45
2018-09-18T05:32:53.674Z,62.45
2018-09-18T05:33:53.720Z,62.16
2018-09-18T05:34:53.704Z,62.16
2018-09-18T05:35:53.738Z,61.88
2018-09-18T05:36:53.719Z,62.36
2018-09-18T05:37:53.706Z,61.78
2018-09-18T05:38:53.725Z,62.36
2018-09-18T05:39:53.774Z,62.16
2018-09-18T05:40:53.751Z,61.91
2018-09-18T05:41:53.734Z,62.10
2018-09-18T05:42:53.815Z,61.81
2018-09-18T05:43:53.780Z,62.39
2018-09-18T05:44:53.808Z,62.58
2018-09-18T05:45:53.803Z,61.81
2018-09-18T05:46:53.839Z,61.52
2018-09-18T05:47:53.810Z,61.81
2018-09-18T05:48:53.858Z,61.91
2018-09-18T05:49:53.870Z,62.29
2018-09-18T05:50:53.842Z,62.19
2018-09-18T05:51:53.870Z,61.72
2018-09-18T05:52:54.175Z,61.52
2018-09-18T05:53:53.947Z,61.43
2018-09-18T05:54:53.894Z,61.52
2018-09-18T05:55:53.922Z,61.33
2018-09-18T05:56:53.903Z,61.52
2018-09-18T05:57:53.905Z,61.05
2018-09-18T05:58:53.950Z,60.47
2018-09-18T05:59:53.932Z,61.24
2018-09-18T06:00:53.972Z,61.14
2018-09-18T06:01:53.953Z,61.65
2018-09-18T06:02:53.966Z,61.27
2018-09-18T06:03:53.966Z,61.14
2018-09-18T06:04:54.059Z,61.14
2018-09-18T06:05:54.012Z,60.78
2018-09-18T06:06:54.177Z,61.84
2018-09-18T06:07:54.033Z,61.75
2018-09-18T06:08:54.021Z,61.27
2018-09-18T06:09:54.059Z,61.55
2018-09-18T06:10:54.073Z,61.75
2018-09-18T06:11:54.108Z,60.69
2018-09-18T06:12:54.074Z,60.78
2018-09-18T06:13:54.089Z,60.98
2018-09-18T06:14:54.094Z,60.98
2018-09-18T06:15:54.185Z,60.98
2018-09-18T06:16:54.134Z,60.98
2018-09-18T06:17:54.107Z,61.17
2018-09-18T06:18:54.124Z,61.36
2018-09-18T06:19:54.145Z,60.50
2018-09-18T06:20:54.160Z,60.31
2018-09-18T06:21:54.205Z,60.78
2018-09-18T06:22:54.216Z,61.17
2018-09-18T06:23:54.173Z,60.40
2018-09-18T06:24:54.219Z,60.50
2018-09-18T06:25:54.200Z,61.46
2018-09-18T06:26:54.229Z,61.46
2018-09-18T06:27:54.199Z,61.65
2018-09-18T06:28:54.213Z,61.17
2018-09-18T06:29:54.293Z,60.98
2018-09-18T06:30:54.275Z,60.91
2018-09-18T06:31:54.265Z,61.27
2018-09-18T06:32:54.271Z,61.20
2018-09-18T06:33:54.299Z,60.43
2018-09-18T06:34:54.311Z,60.43
2018-09-18T06:35:54.343Z,60.24
2018-09-18T06:36:54.342Z,61.30
2018-09-18T06:37:54.372Z,60.31
2018-09-18T06:38:54.329Z,61.20
2018-09-18T06:39:54.368Z,61.30
2018-09-18T06:40:54.379Z,61.11
2018-09-18T06:41:54.365Z,61.01
2018-09-18T06:42:54.390Z,60.82
2018-09-18T06:43:54.432Z,61.20
2018-09-18T06:44:54.455Z,60.91
2018-09-18T06:45:54.403Z,61.20
2018-09-18T06:46:54.416Z,60.82
2018-09-18T06:47:54.463Z,60.82
2018-09-18T06:48:54.484Z,61.01
2018-09-18T06:49:54.452Z,61.01
2018-09-18T06:50:55.049Z,61.11
2018-09-18T06:51:54.457Z,61.01
2018-09-18T06:52:54.588Z,61.01
2018-09-18T06:53:54.499Z,60.91
2018-09-18T06:54:54.516Z,61.87
2018-09-18T06:55:54.502Z,61.40
2018-09-18T06:56:54.535Z,61.30
2018-09-18T06:57:54.525Z,61.30
2018-09-18T06:58:54.594Z,61.30
2018-09-18T06:59:54.809Z,61.49
2018-09-18T07:00:54.633Z,61.87
2018-09-18T07:01:54.557Z,61.49
2018-09-18T07:02:54.566Z,61.49
2018-09-18T07:03:54.632Z,62.35
2018-09-18T07:04:54.607Z,61.68
2018-09-18T07:05:54.633Z,61.49
2018-09-18T07:06:54.727Z,61.78
2018-09-18T07:07:54.617Z,61.49
2018-09-18T07:08:54.665Z,61.81
2018-09-18T07:09:54.683Z,61.71
2018-09-18T07:10:54.664Z,61.78
2018-09-18T07:11:54.713Z,61.81
2018-09-18T07:12:54.721Z,61.01
2018-09-18T07:13:54.708Z,61.01
2018-09-18T07:14:54.704Z,61.01
2018-09-18T07:15:54.719Z,60.75
2018-09-18T07:16:54.899Z,60.82
2018-09-18T07:17:54.735Z,60.46
2018-09-18T07:18:54.747Z,61.30
2018-09-18T07:19:54.734Z,60.82
2018-09-18T07:20:54.771Z,61.68
2018-09-18T07:21:54.776Z,61.91
2018-09-18T07:22:54.800Z,62.29
2018-09-18T07:23:54.806Z,61.91
2018-09-18T07:24:54.867Z,61.91
2018-09-18T07:25:54.799Z,62.10
2018-09-18T07:26:54.831Z,61.91
2018-09-18T07:27:54.886Z,61.91
2018-09-18T07:28:54.833Z,62.10
2018-09-18T07:29:54.844Z,62.19
2018-09-18T07:30:54.849Z,61.61
2018-09-18T07:31:54.987Z,60.85
2018-09-18T07:32:54.954Z,62.29
2018-09-18T07:33:55.003Z,61.61
2018-09-18T07:34:54.906Z,61.71
2018-09-18T07:35:54.932Z,61.23
2018-09-18T07:36:55.129Z,61.43
2018-09-18T07:37:54.933Z,62.58
2018-09-18T07:38:55.067Z,62.10
2018-09-18T07:39:54.946Z,61.43
2018-09-18T07:40:54.981Z,61.81
2018-09-18T07:41:55.001Z,61.52
2018-09-18T07:42:54.995Z,61.91
2018-09-18T07:43:55.064Z,61.61
2018-09-18T07:44:55.006Z,61.43
2018-09-18T07:45:55.017Z,61.61
2018-09-18T07:46:55.050Z,61.23
2018-09-18T07:47:55.037Z,61.14
2018-09-18T07:48:55.045Z,61.74
2018-09-18T07:49:55.067Z,61.94
2018-09-18T07:50:55.075Z,61.65
2018-09-18T07:51:55.107Z,61.84
2018-09-18T07:52:55.092Z,60.88
2018-09-18T07:53:55.144Z,61.26
2018-09-18T07:54:55.109Z,61.84
2018-09-18T07:55:55.122Z,61.07
2018-09-18T07:56:55.161Z,60.88
2018-09-18T07:57:55.130Z,61.65
2018-09-18T07:58:55.169Z,60.88
2018-09-18T07:59:55.178Z,61.16
2018-09-18T08:00:55.269Z,60.39
2018-09-18T08:01:55.186Z,60.69
2018-09-18T08:02:55.220Z,60.59
2018-09-18T08:03:55.242Z,60.78
2018-09-18T08:04:55.211Z,60.59
2018-09-18T08:05:55.250Z,61.26
2018-09-18T08:06:55.273Z,61.36
2018-09-18T08:07:55.250Z,60.97
2018-09-18T08:08:55.301Z,61.74
2018-09-18T08:09:55.261Z,61.97
2018-09-18T08:10:55.385Z,62.16
2018-09-18T08:11:55.313Z,61.10
2018-09-18T08:12:55.367Z,61.10
2018-09-18T08:13:55.336Z,60.72
2018-09-18T08:14:55.384Z,61.00
2018-09-18T08:15:55.326Z,61.19
2018-09-18T08:16:55.367Z,60.42
2018-09-18T08:17:55.411Z,60.91
2018-09-18T08:18:55.493Z,61.00
2018-09-18T08:19:55.419Z,61.19
2018-09-18T08:20:55.389Z,61.10
2018-09-18T08:21:55.421Z,61.22
2018-09-18T08:22:55.477Z,60.55
2018-09-18T08:23:55.429Z,60.75
2018-09-18T08:24:55.421Z,60.84
2018-09-18T08:25:55.518Z,61.13
2018-09-18T08:26:55.471Z,60.36
2018-09-18T08:27:55.477Z,60.07
2018-09-18T08:28:55.478Z,59.97
2018-09-18T08:29:55.473Z,60.07
2018-09-18T08:30:55.634Z,60.27
2018-09-18T08:31:55.534Z,60.17
2018-09-18T08:32:55.581Z,59.69
2018-09-18T08:33:55.550Z,60.07
2018-09-18T08:34:55.618Z,60.55
2018-09-18T08:35:55.545Z,60.36
2018-09-18T08:36:55.574Z,60.65
2018-09-18T08:37:55.582Z,60.00
2018-09-18T08:38:55.624Z,59.72
2018-09-18T08:39:55.709Z,60.20
2018-09-18T08:40:55.641Z,59.91
2018-09-18T08:41:55.669Z,59.52
2018-09-18T08:42:55.671Z,59.81
2018-09-18T08:43:55.641Z,60.10
2018-09-18T08:44:55.665Z,60.10
2018-09-18T08:45:55.665Z,59.23
2018-09-18T08:46:55.841Z,59.62
2018-09-18T08:47:55.787Z,60.30
2018-09-18T08:48:55.725Z,59.91
2018-09-18T08:49:55.730Z,60.10
2018-09-18T08:50:55.786Z,59.81
2018-09-18T08:51:55.881Z,59.52
2018-09-18T08:52:55.752Z,59.72
2018-09-18T08:53:55.900Z,59.14
2018-09-18T08:54:55.819Z,59.91
2018-09-18T08:55:55.948Z,59.62
2018-09-18T08:56:55.970Z,59.72
2018-09-18T08:57:55.831Z,58.75
2018-09-18T08:58:55.973Z,58.85
2018-09-18T08:59:55.857Z,59.04
2018-09-18T09:00:55.918Z,59.43
2018-09-18T09:01:55.885Z,59.45
2018-09-18T09:02:55.881Z,59.65
2018-09-18T09:03:55.963Z,59.55
2018-09-18T09:04:55.942Z,59.94
2018-09-18T09:05:55.903Z,58.88
2018-09-18T09:06:55.954Z,58.78
2018-09-18T09:08:56.094Z,59.17
2018-09-18T09:09:56.009Z,58.49
2018-09-18T09:10:56.045Z,59.07
2018-09-18T09:11:55.976Z,58.97
2018-09-18T09:12:55.990Z,58.78
2018-09-18T09:13:56.053Z,58.69
2018-09-18T09:14:56.025Z,58.69
2018-09-18T09:15:56.006Z,58.59
2018-09-18T09:16:56.053Z,58.59
2018-09-18T09:17:56.085Z,58.49
2018-09-18T09:18:56.027Z,58.59
2018-09-18T09:19:56.038Z,58.88
2018-09-18T09:20:56.154Z,58.97
2018-09-18T09:21:56.369Z,58.69
2018-09-18T09:22:56.404Z,58.30
2018-09-18T09:23:56.177Z,58.78
2018-09-18T09:24:56.152Z,58.81
2018-09-18T09:25:56.139Z,58.62
2018-09-18T09:26:56.199Z,59.20
2018-09-18T09:27:56.259Z,59.10
2018-09-18T09:28:56.145Z,58.91
2018-09-18T09:29:56.297Z,58.52
2018-09-18T09:30:56.218Z,58.91
2018-09-18T09:31:56.215Z,59.48
2018-09-18T09:32:56.244Z,58.62
2018-09-18T09:33:56.254Z,58.62
2018-09-18T09:34:56.269Z,58.62
2018-09-18T09:35:56.296Z,57.75
2018-09-18T09:36:56.343Z,58.42
2018-09-18T09:37:56.246Z,58.52
2018-09-18T09:38:56.337Z,58.42
2018-09-18T09:39:56.299Z,58.94
2018-09-18T09:40:56.312Z,58.52
2018-09-18T09:41:56.333Z,58.52
2018-09-18T09:42:56.332Z,59.13
2018-09-18T09:43:56.336Z,58.75
2018-09-18T09:44:56.415Z,58.84
2018-09-18T09:45:56.409Z,59.13
2018-09-18T09:46:56.355Z,58.36
2018-09-18T09:47:56.360Z,57.97
2018-09-18T09:48:56.394Z,57.87
2018-09-18T09:49:56.375Z,57.87
2018-09-18T09:50:56.440Z,57.97
2018-09-18T09:51:56.442Z,58.17
2018-09-18T09:52:56.491Z,58.45
2018-09-18T09:53:56.453Z,58.75
2018-09-18T09:54:56.450Z,58.07
2018-09-18T09:55:56.455Z,57.97
2018-09-18T09:56:56.660Z,57.97
2018-09-18T09:57:57.021Z,58.17
2018-09-18T09:58:56.505Z,57.68
2018-09-18T09:59:56.544Z,58.19
2018-09-18T10:00:56.546Z,57.62
2018-09-18T10:01:56.592Z,57.42
2018-09-18T10:02:56.701Z,57.81
2018-09-18T10:03:56.579Z,57.14
2018-09-18T10:04:56.575Z,57.32
2018-09-18T10:05:57.686Z,57.32
2018-09-18T10:06:56.763Z,57.14
2018-09-18T10:07:56.944Z,57.32
2018-09-18T10:08:56.684Z,57.32
2018-09-18T10:09:56.649Z,57.14
2018-09-18T10:10:56.714Z,57.14
2018-09-18T10:11:56.683Z,57.42
2018-09-18T10:12:56.691Z,57.04
2018-09-18T10:13:56.696Z,57.32
2018-09-18T10:14:56.692Z,56.56
2018-09-18T10:15:56.734Z,56.29
2018-09-18T10:16:56.720Z,56.77
2018-09-18T10:17:56.821Z,56.58
2018-09-18T10:18:56.761Z,56.29
2018-09-18T10:19:56.732Z,56.29
2018-09-18T10:20:56.805Z,56.29
2018-09-18T10:21:56.782Z,56.58
2018-09-18T10:22:56.790Z,56.58
2018-09-18T10:23:56.820Z,56.10
2018-09-18T10:24:56.900Z,56.68
2018-09-18T10:25:56.878Z,56.58
2018-09-18T10:26:56.963Z,56.96
2018-09-18T10:27:56.837Z,56.58
2018-09-18T10:28:56.889Z,56.51
2018-09-18T10:29:56.896Z,56.58
2018-09-18T10:30:56.882Z,55.81
2018-09-18T10:31:56.975Z,55.74
2018-09-18T10:32:57.026Z,56.61
2018-09-18T10:33:56.931Z,54.97
2018-09-18T10:34:57.021Z,54.77
2018-09-18T10:35:56.933Z,54.97
2018-09-18T10:36:56.959Z,55.26
2018-09-18T10:37:56.995Z,54.77
2018-09-18T10:38:57.125Z,55.07
2018-09-18T10:39:57.053Z,55.26
2018-09-18T10:40:57.139Z,54.97
2018-09-18T10:41:57.108Z,54.97
2018-09-18T10:42:57.252Z,54.87
2018-09-18T10:43:57.098Z,54.87
2018-09-18T10:44:57.091Z,54.97
2018-09-18T10:45:57.054Z,54.29
2018-09-18T10:46:57.142Z,54.97
2018-09-18T10:47:57.126Z,54.61
2018-09-18T10:48:57.118Z,53.71
2018-09-18T10:49:57.147Z,53.61
2018-09-18T10:50:57.146Z,53.55
2018-09-18T10:51:57.191Z,53.83
2018-09-18T10:52:57.158Z,54.03
2018-09-18T10:53:57.214Z,53.16
2018-09-18T10:54:57.178Z,53.06
2018-09-18T10:55:57.235Z,53.06
2018-09-18T10:56:57.321Z,52.97
2018-09-18T10:57:57.439Z,52.67
2018-09-18T10:58:57.281Z,52.87
2018-09-18T10:59:57.312Z,52.19
2018-09-18T11:00:57.248Z,53.06
2018-09-18T11:01:57.670Z,52.29
2018-09-18T11:02:57.292Z,52.58
2018-09-18T11:03:57.586Z,52.02
2018-09-18T11:04:57.359Z,51.83
2018-09-18T11:05:57.609Z,51.83
2018-09-18T11:06:57.416Z,51.93
2018-09-18T11:07:57.413Z,50.55
2018-09-18T11:08:57.582Z,51.06
2018-09-18T11:09:57.533Z,50.96
2018-09-18T11:10:57.409Z,51.06
2018-09-18T11:11:57.449Z,50.76
2018-09-18T11:12:58.037Z,50.38
2018-09-18T11:13:57.625Z,50.28
2018-09-18T11:14:57.906Z,50.09
2018-09-18T11:15:57.483Z,49.99
2018-09-18T11:16:57.601Z,48.83
2018-09-18T11:17:57.604Z,48.83
2018-09-18T11:18:57.581Z,48.83
2018-09-18T11:19:57.541Z,48.57
2018-09-18T11:20:57.574Z,48.76
2018-09-18T11:21:57.622Z,47.69
2018-09-18T11:23:00.436Z,47.89
2018-09-18T11:23:57.616Z,47.69
2018-09-18T11:24:57.634Z,47.69
2018-09-18T11:25:58.161Z,48.47
2018-09-18T11:26:57.585Z,47.79
2018-09-18T11:27:57.594Z,47.21
2018-09-18T11:28:57.659Z,47.50
2018-09-18T11:29:57.694Z,47.02
2018-09-18T11:30:57.667Z,47.60
2018-09-18T11:31:57.659Z,46.15
2018-09-18T11:33:01.158Z,46.83
2018-09-18T11:33:57.853Z,47.11
2018-09-18T11:34:57.763Z,47.02
2018-09-18T11:35:57.746Z,47.52
2018-09-18T11:36:59.426Z,46.84
2018-09-18T11:37:57.961Z,46.94
2018-09-18T11:38:58.927Z,46.66
2018-09-18T11:39:58.947Z,47.14
2018-09-18T11:40:58.143Z,46.46
2018-09-18T11:41:57.793Z,46.66
2018-09-18T11:42:57.831Z,46.46
2018-09-18T11:43:57.797Z,46.46
2018-09-18T11:44:57.806Z,46.36
2018-09-18T11:45:58.073Z,45.78
2018-09-18T11:46:57.851Z,45.40
2018-09-18T11:47:57.889Z,45.20
2018-09-18T11:48:57.868Z,45.30
2018-09-18T11:49:57.929Z,45.10
2018-09-18T11:50:57.885Z,45.13
2018-09-18T11:51:57.908Z,44.91
2018-09-18T11:52:58.023Z,44.54
2018-09-18T11:53:58.089Z,44.43
2018-09-18T11:54:57.972Z,44.45
2018-09-18T11:55:58.012Z,44.53
2018-09-18T11:56:57.983Z,45.13
2018-09-18T11:57:58.013Z,45.22
2018-09-18T11:58:58.006Z,45.32
2018-09-18T11:59:58.044Z,45.22
2018-09-18T12:00:58.163Z,45.42
2018-09-18T12:01:58.293Z,45.22
2018-09-18T12:02:58.056Z,45.22
2018-09-18T12:03:58.177Z,45.32
2018-09-18T12:04:58.112Z,44.54
2018-09-18T12:05:58.088Z,44.45
2018-09-18T12:06:58.093Z,43.96
2018-09-18T12:07:58.142Z,43.96
2018-09-18T12:08:58.172Z,44.45
2018-09-18T12:09:58.183Z,43.68
2018-09-18T12:10:58.201Z,43.38
2018-09-18T12:11:58.171Z,43.58
2018-09-18T12:12:58.422Z,43.58
2018-09-18T12:13:58.244Z,43.96
2018-09-18T12:14:58.213Z,43.68
2018-09-18T12:15:58.245Z,43.96
2018-09-18T12:16:58.315Z,44.06
2018-09-18T12:17:58.256Z,44.26
2018-09-18T12:18:58.273Z,44.06
2018-09-18T12:19:58.364Z,44.06
2018-09-18T12:20:58.326Z,45.03
2018-09-18T12:21:58.336Z,44.54
2018-09-18T12:22:58.313Z,44.45
2018-09-18T12:23:58.451Z,45.22
2018-09-18T12:24:58.377Z,44.16
2018-09-18T12:25:58.629Z,43.38
2018-09-18T12:26:58.410Z,43.58
2018-09-18T12:27:58.375Z,43.09
2018-09-18T12:28:58.394Z,43.58
2018-09-18T12:29:58.439Z,43.58
2018-09-18T12:30:58.470Z,43.48
2018-09-18T12:31:58.487Z,42.22
2018-09-18T12:32:58.431Z,43.09
2018-09-18T12:33:58.475Z,42.71
2018-09-18T12:34:58.499Z,42.13
2018-09-18T12:35:58.485Z,42.22
2018-09-18T12:36:58.503Z,42.61
2018-09-18T12:37:58.551Z,41.35
2018-09-18T12:38:58.540Z,42.22
2018-09-18T12:39:58.577Z,42.61
2018-09-18T12:40:58.577Z,41.64
2018-09-18T12:41:58.637Z,42.32
2018-09-18T12:42:58.593Z,42.32
2018-09-18T12:43:58.581Z,42.71
2018-09-18T12:44:58.649Z,42.41
2018-09-18T12:45:58.649Z,42.41
2018-09-18T12:46:58.626Z,42.71
2018-09-18T12:47:58.711Z,42.13
2018-09-18T12:48:58.697Z,42.32
2018-09-18T12:49:58.929Z,41.35
2018-09-18T12:50:58.800Z,42.13
2018-09-18T12:51:58.730Z,42.22
2018-09-18T12:52:58.704Z,41.16
2018-09-18T12:53:58.819Z,42.32